sensor_id;sensor_type;location;lat;lon;timestamp;temperature;humidity
25532;DHT22;13429;48.816;9.118;2024-01-15T00:01:29;-3274.80;80.50
25532;DHT22;13429;48.816;9.118;2024-01-15T00:03:55;-3274.80;80.50
25532;DHT22;13429;48.816;9.118;2024-01-15T00:06:21;-3274.80;80.40
25532;DHT22;13429;48.816;9.118;2024-01-15T00:08:46;-3274.70;80.60
25532;DHT22;13429;48.816;9.118;2024-01-15T00:11:12;-3274.70;80.70
25532;DHT22;13429;48.816;9.118;2024-01-15T00:13:38;-3274.60;80.90
25532;DHT22;13429;48.816;9.118;2024-01-15T00:16:06;-3274.50;81.20
25532;DHT22;13429;48.816;9.118;2024-01-15T00:18:32;-3274.50;81.30
25532;DHT22;13429;48.816;9.118;2024-01-15T00:20:57;-3274.50;81.50
25532;DHT22;13429;48.816;9.118;2024-01-15T00:23:23;-3274.40;81.50
25532;DHT22;13429;48.816;9.118;2024-01-15T00:25:50;-3274.40;81.70
25532;DHT22;13429;48.816;9.118;2024-01-15T00:28:17;-3274.30;81.80
25532;DHT22;13429;48.816;9.118;2024-01-15T00:30:43;-3274.30;82.00
25532;DHT22;13429;48.816;9.118;2024-01-15T00:33:08;-3274.20;82.10
25532;DHT22;13429;48.816;9.118;2024-01-15T00:35:34;-3274.20;82.20
25532;DHT22;13429;48.816;9.118;2024-01-15T00:38:00;-3274.20;82.40
25532;DHT22;13429;48.816;9.118;2024-01-15T00:40:25;-3274.10;82.50
25532;DHT22;13429;48.816;9.118;2024-01-15T00:42:51;-3274.10;82.50
25532;DHT22;13429;48.816;9.118;2024-01-15T00:45:17;-3274.10;82.70
25532;DHT22;13429;48.816;9.118;2024-01-15T00:47:42;-3274.10;82.70
25532;DHT22;13429;48.816;9.118;2024-01-15T00:50:08;-3274.10;82.80
25532;DHT22;13429;48.816;9.118;2024-01-15T00:52:34;-3274.20;82.80
25532;DHT22;13429;48.816;9.118;2024-01-15T00:54:59;-3274.20;82.80
25532;DHT22;13429;48.816;9.118;2024-01-15T00:57:25;-3274.20;82.90
25532;DHT22;13429;48.816;9.118;2024-01-15T00:59:51;-3274.20;82.90
25532;DHT22;13429;48.816;9.118;2024-01-15T01:02:16;-3274.30;82.90
25532;DHT22;13429;48.816;9.118;2024-01-15T01:04:42;-3274.40;82.90
25532;DHT22;13429;48.816;9.118;2024-01-15T01:07:08;-3274.40;83.00
25532;DHT22;13429;48.816;9.118;2024-01-15T01:09:33;-3274.50;82.80
25532;DHT22;13429;48.816;9.118;2024-01-15T01:11:59;-3274.60;82.70
25532;DHT22;13429;48.816;9.118;2024-01-15T01:14:25;-3274.70;82.80
25532;DHT22;13429;48.816;9.118;2024-01-15T01:16:50;-3274.70;82.70
25532;DHT22;13429;48.816;9.118;2024-01-15T01:19:16;-3274.70;82.50
25532;DHT22;13429;48.816;9.118;2024-01-15T01:21:42;-3274.80;82.50
25532;DHT22;13429;48.816;9.118;2024-01-15T01:24:07;-3274.90;82.40
25532;DHT22;13429;48.816;9.118;2024-01-15T01:26:33;-3274.90;82.40
25532;DHT22;13429;48.816;9.118;2024-01-15T01:28:58;-3274.90;82.40
25532;DHT22;13429;48.816;9.118;2024-01-15T01:31:24;-3275.00;82.40
25532;DHT22;13429;48.816;9.118;2024-01-15T01:33:50;-3275.00;82.40
25532;DHT22;13429;48.816;9.118;2024-01-15T01:36:16;-3275.00;82.50
25532;DHT22;13429;48.816;9.118;2024-01-15T01:38:41;-3275.10;82.60
25532;DHT22;13429;48.816;9.118;2024-01-15T01:41:07;-3275.10;82.40
25532;DHT22;13429;48.816;9.118;2024-01-15T01:43:33;-3275.20;82.50
25532;DHT22;13429;48.816;9.118;2024-01-15T01:46:00;-3275.20;82.20
25532;DHT22;13429;48.816;9.118;2024-01-15T01:48:26;-3275.30;82.00
25532;DHT22;13429;48.816;9.118;2024-01-15T01:50:58;-3275.30;82.10
25532;DHT22;13429;48.816;9.118;2024-01-15T01:53:25;-3275.30;82.10
25532;DHT22;13429;48.816;9.118;2024-01-15T01:55:51;-3275.30;82.20
25532;DHT22;13429;48.816;9.118;2024-01-15T01:58:18;-3275.30;82.20
25532;DHT22;13429;48.816;9.118;2024-01-15T02:00:45;-3275.20;82.30
25532;DHT22;13429;48.816;9.118;2024-01-15T02:03:11;-3275.20;82.30
25532;DHT22;13429;48.816;9.118;2024-01-15T02:05:39;-3275.10;82.50
25532;DHT22;13429;48.816;9.118;2024-01-15T02:08:05;-3275.20;82.50
25532;DHT22;13429;48.816;9.118;2024-01-15T02:10:31;-3275.10;82.50
25532;DHT22;13429;48.816;9.118;2024-01-15T02:12:57;-3275.10;82.60
25532;DHT22;13429;48.816;9.118;2024-01-15T02:15:23;-3275.10;82.50
25532;DHT22;13429;48.816;9.118;2024-01-15T02:18:05;-3275.10;82.50
25532;DHT22;13429;48.816;9.118;2024-01-15T02:20:32;-3275.10;82.50
25532;DHT22;13429;48.816;9.118;2024-01-15T02:23:15;-3275.10;82.30
25532;DHT22;13429;48.816;9.118;2024-01-15T02:25:42;-3275.10;82.40
25532;DHT22;13429;48.816;9.118;2024-01-15T02:28:10;-3275.00;82.30
25532;DHT22;13429;48.816;9.118;2024-01-15T02:30:37;-3275.00;82.30
25532;DHT22;13429;48.816;9.118;2024-01-15T02:33:05;-3275.00;82.30
25532;DHT22;13429;48.816;9.118;2024-01-15T02:35:30;-3274.90;82.40
25532;DHT22;13429;48.816;9.118;2024-01-15T02:37:56;-3274.90;82.30
25532;DHT22;13429;48.816;9.118;2024-01-15T02:40:21;-3274.90;82.50
25532;DHT22;13429;48.816;9.118;2024-01-15T02:42:47;-3274.90;82.60
25532;DHT22;13429;48.816;9.118;2024-01-15T02:45:13;-3274.80;82.60
25532;DHT22;13429;48.816;9.118;2024-01-15T02:47:38;-3274.80;82.70
25532;DHT22;13429;48.816;9.118;2024-01-15T02:50:04;-3274.80;82.90
25532;DHT22;13429;48.816;9.118;2024-01-15T02:52:30;-3274.80;82.90
25532;DHT22;13429;48.816;9.118;2024-01-15T02:54:56;-3274.80;82.80
25532;DHT22;13429;48.816;9.118;2024-01-15T02:57:21;-3274.80;82.70
25532;DHT22;13429;48.816;9.118;2024-01-15T02:59:47;-3274.80;82.80
25532;DHT22;13429;48.816;9.118;2024-01-15T03:02:13;-3274.80;82.90
25532;DHT22;13429;48.816;9.118;2024-01-15T03:04:46;-3274.80;82.90
25532;DHT22;13429;48.816;9.118;2024-01-15T03:07:12;-3274.80;82.90
25532;DHT22;13429;48.816;9.118;2024-01-15T03:09:37;-3274.80;83.00
25532;DHT22;13429;48.816;9.118;2024-01-15T03:12:03;-3274.80;83.10
25532;DHT22;13429;48.816;9.118;2024-01-15T03:14:29;-3274.80;83.00
25532;DHT22;13429;48.816;9.118;2024-01-15T03:16:55;-3274.80;83.00
25532;DHT22;13429;48.816;9.118;2024-01-15T03:19:21;-3274.80;83.10
25532;DHT22;13429;48.816;9.118;2024-01-15T03:21:46;-3274.80;83.20
25532;DHT22;13429;48.816;9.118;2024-01-15T03:24:12;-3274.80;83.20
25532;DHT22;13429;48.816;9.118;2024-01-15T03:26:38;-3274.80;83.20
25532;DHT22;13429;48.816;9.118;2024-01-15T03:29:03;-3274.80;83.20
25532;DHT22;13429;48.816;9.118;2024-01-15T03:31:29;-3274.80;83.30
25532;DHT22;13429;48.816;9.118;2024-01-15T03:33:55;-3274.80;83.30
25532;DHT22;13429;48.816;9.118;2024-01-15T03:36:21;-3274.90;83.40
25532;DHT22;13429;48.816;9.118;2024-01-15T03:38:47;-3275.00;83.30
25532;DHT22;13429;48.816;9.118;2024-01-15T03:41:12;-3275.00;83.20
25532;DHT22;13429;48.816;9.118;2024-01-15T03:43:38;-3275.10;83.00
25532;DHT22;13429;48.816;9.118;2024-01-15T03:46:05;-3275.10;83.10
25532;DHT22;13429;48.816;9.118;2024-01-15T03:48:31;-3275.20;82.80
25532;DHT22;13429;48.816;9.118;2024-01-15T03:50:56;-3275.40;82.20
25532;DHT22;13429;48.816;9.118;2024-01-15T03:53:22;-3275.50;82.10
25532;DHT22;13429;48.816;9.118;2024-01-15T03:55:48;-3275.60;81.90
25532;DHT22;13429;48.816;9.118;2024-01-15T03:58:14;-3275.70;81.70
25532;DHT22;13429;48.816;9.118;2024-01-15T04:00:42;-3275.70;81.30
25532;DHT22;13429;48.816;9.118;2024-01-15T04:03:08;-3275.80;81.00
25532;DHT22;13429;48.816;9.118;2024-01-15T04:05:34;-3275.80;81.00
25532;DHT22;13429;48.816;9.118;2024-01-15T04:08:00;-3275.80;80.80
25532;DHT22;13429;48.816;9.118;2024-01-15T04:10:25;-3275.80;80.80
25532;DHT22;13429;48.816;9.118;2024-01-15T04:12:51;-3275.80;80.80
25532;DHT22;13429;48.816;9.118;2024-01-15T04:15:17;-3275.90;80.50
25532;DHT22;13429;48.816;9.118;2024-01-15T04:17:42;-3276.00;80.20
25532;DHT22;13429;48.816;9.118;2024-01-15T04:20:08;-3275.90;80.30
25532;DHT22;13429;48.816;9.118;2024-01-15T04:22:35;-3276.00;80.40
25532;DHT22;13429;48.816;9.118;2024-01-15T04:25:01;-3276.00;80.40
25532;DHT22;13429;48.816;9.118;2024-01-15T04:27:27;-3276.00;80.20
25532;DHT22;13429;48.816;9.118;2024-01-15T04:29:52;-3276.10;80.00
25532;DHT22;13429;48.816;9.118;2024-01-15T04:32:18;-3276.00;79.70
25532;DHT22;13429;48.816;9.118;2024-01-15T04:34:44;-3276.10;79.90
25532;DHT22;13429;48.816;9.118;2024-01-15T04:37:10;-3276.10;79.80
25532;DHT22;13429;48.816;9.118;2024-01-15T04:39:35;-3276.10;79.60
25532;DHT22;13429;48.816;9.118;2024-01-15T04:42:01;-3276.20;79.50
25532;DHT22;13429;48.816;9.118;2024-01-15T04:44:27;-3276.20;79.30
25532;DHT22;13429;48.816;9.118;2024-01-15T04:46:52;-3276.20;79.10
25532;DHT22;13429;48.816;9.118;2024-01-15T04:49:18;-3276.20;79.30
25532;DHT22;13429;48.816;9.118;2024-01-15T04:51:44;-3276.20;79.00
25532;DHT22;13429;48.816;9.118;2024-01-15T04:54:09;-3276.20;79.10
25532;DHT22;13429;48.816;9.118;2024-01-15T04:56:35;-3276.20;78.80
25532;DHT22;13429;48.816;9.118;2024-01-15T04:59:01;-3276.30;78.50
25532;DHT22;13429;48.816;9.118;2024-01-15T05:01:33;-3276.30;78.80
25532;DHT22;13429;48.816;9.118;2024-01-15T05:03:59;-3276.30;78.60
25532;DHT22;13429;48.816;9.118;2024-01-15T05:06:24;-3276.30;78.40
25532;DHT22;13429;48.816;9.118;2024-01-15T05:08:50;-3276.30;78.50
25532;DHT22;13429;48.816;9.118;2024-01-15T05:11:15;-3276.30;78.60
25532;DHT22;13429;48.816;9.118;2024-01-15T05:13:41;-3276.40;78.40
25532;DHT22;13429;48.816;9.118;2024-01-15T05:16:07;-3276.40;78.40
25532;DHT22;13429;48.816;9.118;2024-01-15T05:18:33;-3276.40;78.40
25532;DHT22;13429;48.816;9.118;2024-01-15T05:20:58;-3276.40;78.30
25532;DHT22;13429;48.816;9.118;2024-01-15T05:23:24;-3276.40;78.30
25532;DHT22;13429;48.816;9.118;2024-01-15T05:25:49;-3276.40;78.20
25532;DHT22;13429;48.816;9.118;2024-01-15T05:28:15;-3276.40;78.20
25532;DHT22;13429;48.816;9.118;2024-01-15T05:30:41;-3276.50;78.20
25532;DHT22;13429;48.816;9.118;2024-01-15T05:33:06;-3276.50;78.10
25532;DHT22;13429;48.816;9.118;2024-01-15T05:35:33;-3276.50;78.00
25532;DHT22;13429;48.816;9.118;2024-01-15T05:37:59;-3276.50;78.20
25532;DHT22;13429;48.816;9.118;2024-01-15T05:40:24;-3276.50;78.00
25532;DHT22;13429;48.816;9.118;2024-01-15T05:42:50;-3276.50;77.80
25532;DHT22;13429;48.816;9.118;2024-01-15T05:45:16;-3276.50;77.90
25532;DHT22;13429;48.816;9.118;2024-01-15T05:47:41;-3276.50;77.90
25532;DHT22;13429;48.816;9.118;2024-01-15T05:50:08;-3276.50;78.00
25532;DHT22;13429;48.816;9.118;2024-01-15T05:52:33;-3276.50;77.80
25532;DHT22;13429;48.816;9.118;2024-01-15T05:54:59;-3276.50;77.80
25532;DHT22;13429;48.816;9.118;2024-01-15T05:57:25;-3276.50;77.70
25532;DHT22;13429;48.816;9.118;2024-01-15T05:59:50;-3276.50;77.80
25532;DHT22;13429;48.816;9.118;2024-01-15T06:02:16;-3276.60;77.60
25532;DHT22;13429;48.816;9.118;2024-01-15T06:04:41;-3276.50;77.70
25532;DHT22;13429;48.816;9.118;2024-01-15T06:07:07;-3276.50;77.90
25532;DHT22;13429;48.816;9.118;2024-01-15T06:09:33;-3276.50;77.80
25532;DHT22;13429;48.816;9.118;2024-01-15T06:11:59;-3276.50;77.80
25532;DHT22;13429;48.816;9.118;2024-01-15T06:14:24;-3276.50;77.90
25532;DHT22;13429;48.816;9.118;2024-01-15T06:16:50;-3276.50;78.10
25532;DHT22;13429;48.816;9.118;2024-01-15T06:19:16;-3276.50;78.00
25532;DHT22;13429;48.816;9.118;2024-01-15T06:21:41;-3276.50;78.00
25532;DHT22;13429;48.816;9.118;2024-01-15T06:24:07;-3276.50;78.20
25532;DHT22;13429;48.816;9.118;2024-01-15T06:26:35;-3276.40;78.00
25532;DHT22;13429;48.816;9.118;2024-01-15T06:29:00;-3276.50;78.00
25532;DHT22;13429;48.816;9.118;2024-01-15T06:31:26;-3276.40;78.20
25532;DHT22;13429;48.816;9.118;2024-01-15T06:33:51;-3276.50;78.20
25532;DHT22;13429;48.816;9.118;2024-01-15T06:36:17;-3276.40;78.20
25532;DHT22;13429;48.816;9.118;2024-01-15T06:38:43;-3276.40;78.30
25532;DHT22;13429;48.816;9.118;2024-01-15T06:41:10;-3276.40;78.20
25532;DHT22;13429;48.816;9.118;2024-01-15T06:43:35;-3276.40;78.30
25532;DHT22;13429;48.816;9.118;2024-01-15T06:46:01;-3276.40;78.40
25532;DHT22;13429;48.816;9.118;2024-01-15T06:48:27;-3276.40;78.20
25532;DHT22;13429;48.816;9.118;2024-01-15T06:50:52;-3276.50;78.00
25532;DHT22;13429;48.816;9.118;2024-01-15T06:53:18;-3276.40;78.20
25532;DHT22;13429;48.816;9.118;2024-01-15T06:55:44;-3276.50;78.10
25532;DHT22;13429;48.816;9.118;2024-01-15T06:58:09;-3276.50;78.10
25532;DHT22;13429;48.816;9.118;2024-01-15T07:00:35;-3276.50;77.90
25532;DHT22;13429;48.816;9.118;2024-01-15T07:03:01;-3276.50;77.90
25532;DHT22;13429;48.816;9.118;2024-01-15T07:05:26;-3276.50;77.90
25532;DHT22;13429;48.816;9.118;2024-01-15T07:07:52;-3276.50;77.80
25532;DHT22;13429;48.816;9.118;2024-01-15T07:10:18;-3276.50;77.60
25532;DHT22;13429;48.816;9.118;2024-01-15T07:12:44;-3276.60;77.20
25532;DHT22;13429;48.816;9.118;2024-01-15T07:15:09;-3276.60;77.50
25532;DHT22;13429;48.816;9.118;2024-01-15T07:17:35;-3276.50;77.30
25532;DHT22;13429;48.816;9.118;2024-01-15T07:20:06;-3276.50;77.40
25532;DHT22;13429;48.816;9.118;2024-01-15T07:22:33;-3276.50;77.50
25532;DHT22;13429;48.816;9.118;2024-01-15T07:24:59;-3276.50;77.50
25532;DHT22;13429;48.816;9.118;2024-01-15T07:27:24;-3276.50;77.60
25532;DHT22;13429;48.816;9.118;2024-01-15T07:29:50;-3276.50;77.50
25532;DHT22;13429;48.816;9.118;2024-01-15T07:32:16;-3276.50;77.50
25532;DHT22;13429;48.816;9.118;2024-01-15T07:34:41;-3276.50;77.60
25532;DHT22;13429;48.816;9.118;2024-01-15T07:37:07;-3276.50;77.70
25532;DHT22;13429;48.816;9.118;2024-01-15T07:39:33;-3276.50;77.80
25532;DHT22;13429;48.816;9.118;2024-01-15T07:42:00;-3276.60;77.60
25532;DHT22;13429;48.816;9.118;2024-01-15T07:44:26;-3276.60;77.60
25532;DHT22;13429;48.816;9.118;2024-01-15T07:46:51;-3276.60;77.60
25532;DHT22;13429;48.816;9.118;2024-01-15T07:49:17;-3276.60;77.70
25532;DHT22;13429;48.816;9.118;2024-01-15T07:51:43;-3276.50;77.90
25532;DHT22;13429;48.816;9.118;2024-01-15T07:54:11;-3276.60;77.80
25532;DHT22;13429;48.816;9.118;2024-01-15T07:56:56;-3276.60;77.70
25532;DHT22;13429;48.816;9.118;2024-01-15T07:59:23;-3276.60;77.80
25532;DHT22;13429;48.816;9.118;2024-01-15T08:01:49;-3276.60;77.80
25532;DHT22;13429;48.816;9.118;2024-01-15T08:04:14;-3276.70;77.90
25532;DHT22;13429;48.816;9.118;2024-01-15T08:06:40;-3276.60;77.80
25532;DHT22;13429;48.816;9.118;2024-01-15T08:09:06;-3276.70;77.50
25532;DHT22;13429;48.816;9.118;2024-01-15T08:11:31;-3276.70;77.80
25532;DHT22;13429;48.816;9.118;2024-01-15T08:13:57;-3276.70;77.40
25532;DHT22;13429;48.816;9.118;2024-01-15T08:16:23;-3276.70;77.20
25532;DHT22;13429;48.816;9.118;2024-01-15T08:18:50;0.00;77.20
25532;DHT22;13429;48.816;9.118;2024-01-15T08:21:16;0.00;76.70
25532;DHT22;13429;48.816;9.118;2024-01-15T08:23:42;0.00;76.10
25532;DHT22;13429;48.816;9.118;2024-01-15T08:26:07;0.00;76.10
25532;DHT22;13429;48.816;9.118;2024-01-15T08:28:34;0.10;75.60
25532;DHT22;13429;48.816;9.118;2024-01-15T08:30:59;0.10;75.10
25532;DHT22;13429;48.816;9.118;2024-01-15T08:33:25;0.20;74.80
25532;DHT22;13429;48.816;9.118;2024-01-15T08:35:51;0.20;74.90
25532;DHT22;13429;48.816;9.118;2024-01-15T08:38:16;0.30;73.60
25532;DHT22;13429;48.816;9.118;2024-01-15T08:40:42;0.30;73.60
25532;DHT22;13429;48.816;9.118;2024-01-15T08:43:07;0.30;73.90
25532;DHT22;13429;48.816;9.118;2024-01-15T08:45:33;0.40;73.80
25532;DHT22;13429;48.816;9.118;2024-01-15T08:47:59;0.40;73.40
25532;DHT22;13429;48.816;9.118;2024-01-15T08:50:24;0.50;73.30
25532;DHT22;13429;48.816;9.118;2024-01-15T08:52:50;0.50;72.70
25532;DHT22;13429;48.816;9.118;2024-01-15T08:55:16;0.50;72.80
25532;DHT22;13429;48.816;9.118;2024-01-15T08:57:41;0.60;72.20
25532;DHT22;13429;48.816;9.118;2024-01-15T09:00:09;0.60;72.20
25532;DHT22;13429;48.816;9.118;2024-01-15T09:02:34;0.80;72.30
25532;DHT22;13429;48.816;9.118;2024-01-15T09:05:01;0.80;72.20
25532;DHT22;13429;48.816;9.118;2024-01-15T09:07:27;0.90;72.30
25532;DHT22;13429;48.816;9.118;2024-01-15T09:09:53;0.90;72.10
25532;DHT22;13429;48.816;9.118;2024-01-15T09:12:19;0.90;71.60
25532;DHT22;13429;48.816;9.118;2024-01-15T09:14:46;0.90;71.40
25532;DHT22;13429;48.816;9.118;2024-01-15T09:17:12;0.90;72.20
25532;DHT22;13429;48.816;9.118;2024-01-15T09:19:38;0.90;71.70
25532;DHT22;13429;48.816;9.118;2024-01-15T09:22:05;0.90;70.70
25532;DHT22;13429;48.816;9.118;2024-01-15T09:24:31;1.00;71.30
25532;DHT22;13429;48.816;9.118;2024-01-15T09:26:56;1.10;70.90
25532;DHT22;13429;48.816;9.118;2024-01-15T09:29:22;1.10;70.40
25532;DHT22;13429;48.816;9.118;2024-01-15T09:31:49;1.20;71.10
25532;DHT22;13429;48.816;9.118;2024-01-15T09:34:16;1.30;71.10
25532;DHT22;13429;48.816;9.118;2024-01-15T09:36:41;1.30;70.90
25532;DHT22;13429;48.816;9.118;2024-01-15T09:39:08;1.40;70.00
25532;DHT22;13429;48.816;9.118;2024-01-15T09:41:37;1.30;69.40
25532;DHT22;13429;48.816;9.118;2024-01-15T09:44:04;1.30;69.10
25532;DHT22;13429;48.816;9.118;2024-01-15T09:46:31;1.40;69.40
25532;DHT22;13429;48.816;9.118;2024-01-15T09:49:00;1.40;69.60
25532;DHT22;13429;48.816;9.118;2024-01-15T09:51:31;1.40;69.40
25532;DHT22;13429;48.816;9.118;2024-01-15T09:53:58;1.40;69.70
25532;DHT22;13429;48.816;9.118;2024-01-15T09:56:24;1.40;69.60
25532;DHT22;13429;48.816;9.118;2024-01-15T09:58:50;1.40;69.10
25532;DHT22;13429;48.816;9.118;2024-01-15T10:01:22;1.40;69.10
25532;DHT22;13429;48.816;9.118;2024-01-15T10:03:48;1.40;69.10
25532;DHT22;13429;48.816;9.118;2024-01-15T10:06:17;1.50;68.90
25532;DHT22;13429;48.816;9.118;2024-01-15T10:08:50;1.50;68.90
25532;DHT22;13429;48.816;9.118;2024-01-15T10:11:16;1.50;67.90
25532;DHT22;13429;48.816;9.118;2024-01-15T10:13:45;1.40;68.60
25532;DHT22;13429;48.816;9.118;2024-01-15T10:16:11;1.50;68.60
25532;DHT22;13429;48.816;9.118;2024-01-15T10:18:37;1.60;68.70
25532;DHT22;13429;48.816;9.118;2024-01-15T10:21:06;1.60;68.30
25532;DHT22;13429;48.816;9.118;2024-01-15T10:23:32;1.60;68.10
25532;DHT22;13429;48.816;9.118;2024-01-15T10:25:58;1.60;68.10
25532;DHT22;13429;48.816;9.118;2024-01-15T10:28:26;1.60;67.90
25532;DHT22;13429;48.816;9.118;2024-01-15T10:30:59;1.50;68.30
25532;DHT22;13429;48.816;9.118;2024-01-15T10:33:25;1.40;68.40
25532;DHT22;13429;48.816;9.118;2024-01-15T10:35:54;1.40;68.70
25532;DHT22;13429;48.816;9.118;2024-01-15T10:38:21;1.40;68.20
25532;DHT22;13429;48.816;9.118;2024-01-15T10:40:51;1.40;68.30
25532;DHT22;13429;48.816;9.118;2024-01-15T10:43:17;1.50;68.40
25532;DHT22;13429;48.816;9.118;2024-01-15T10:45:46;1.60;68.40
25532;DHT22;13429;48.816;9.118;2024-01-15T10:48:13;1.60;68.50
25532;DHT22;13429;48.816;9.118;2024-01-15T10:50:39;1.60;68.20
25532;DHT22;13429;48.816;9.118;2024-01-15T10:53:05;1.60;68.70
25532;DHT22;13429;48.816;9.118;2024-01-15T10:55:31;1.60;68.70
25532;DHT22;13429;48.816;9.118;2024-01-15T10:57:59;1.60;69.00
25532;DHT22;13429;48.816;9.118;2024-01-15T11:00:25;1.70;69.00
25532;DHT22;13429;48.816;9.118;2024-01-15T11:02:52;1.80;69.10
25532;DHT22;13429;48.816;9.118;2024-01-15T11:05:21;1.80;69.30
25532;DHT22;13429;48.816;9.118;2024-01-15T11:07:50;1.70;69.80
25532;DHT22;13429;48.816;9.118;2024-01-15T11:13:04;1.50;72.00
25532;DHT22;13429;48.816;9.118;2024-01-15T11:15:30;1.40;73.70
25532;DHT22;13429;48.816;9.118;2024-01-15T11:18:01;1.30;74.20
25532;DHT22;13429;48.816;9.118;2024-01-15T11:20:28;1.20;74.70
25532;DHT22;13429;48.816;9.118;2024-01-15T11:22:54;1.10;76.90
25532;DHT22;13429;48.816;9.118;2024-01-15T11:25:22;1.00;78.10
25532;DHT22;13429;48.816;9.118;2024-01-15T11:27:52;1.00;78.50
25532;DHT22;13429;48.816;9.118;2024-01-15T11:30:19;1.20;78.20
25532;DHT22;13429;48.816;9.118;2024-01-15T11:32:47;1.20;77.60
25532;DHT22;13429;48.816;9.118;2024-01-15T11:35:13;1.30;77.50
25532;DHT22;13429;48.816;9.118;2024-01-15T11:40:41;1.30;78.40
25532;DHT22;13429;48.816;9.118;2024-01-15T11:43:08;1.20;78.50
25532;DHT22;13429;48.816;9.118;2024-01-15T11:45:35;1.10;78.40
25532;DHT22;13429;48.816;9.118;2024-01-15T11:48:17;1.10;78.20
25532;DHT22;13429;48.816;9.118;2024-01-15T11:50:48;1.00;78.50
25532;DHT22;13429;48.816;9.118;2024-01-15T11:55:51;1.00;79.00
25532;DHT22;13429;48.816;9.118;2024-01-15T11:58:17;0.90;79.30
25532;DHT22;13429;48.816;9.118;2024-01-15T12:00:45;0.90;80.00
25532;DHT22;13429;48.816;9.118;2024-01-15T12:03:11;0.80;81.10
25532;DHT22;13429;48.816;9.118;2024-01-15T12:05:40;0.80;81.30
25532;DHT22;13429;48.816;9.118;2024-01-15T12:08:07;0.90;81.40
25532;DHT22;13429;48.816;9.118;2024-01-15T12:10:39;0.90;80.80
25532;DHT22;13429;48.816;9.118;2024-01-15T12:13:13;1.00;80.30
25532;DHT22;13429;48.816;9.118;2024-01-15T12:15:39;1.00;80.20
25532;DHT22;13429;48.816;9.118;2024-01-15T12:18:10;1.00;80.20
25532;DHT22;13429;48.816;9.118;2024-01-15T12:20:36;0.90;80.90
25532;DHT22;13429;48.816;9.118;2024-01-15T12:23:02;0.80;81.30
25532;DHT22;13429;48.816;9.118;2024-01-15T12:25:34;0.80;81.90
25532;DHT22;13429;48.816;9.118;2024-01-15T12:28:00;0.80;82.40
25532;DHT22;13429;48.816;9.118;2024-01-15T12:30:27;0.80;82.50
25532;DHT22;13429;48.816;9.118;2024-01-15T12:32:53;0.80;82.60
25532;DHT22;13429;48.816;9.118;2024-01-15T12:35:19;0.80;82.80
25532;DHT22;13429;48.816;9.118;2024-01-15T12:37:44;0.80;83.20
25532;DHT22;13429;48.816;9.118;2024-01-15T12:40:12;0.80;83.40
25532;DHT22;13429;48.816;9.118;2024-01-15T12:42:40;0.80;83.60
25532;DHT22;13429;48.816;9.118;2024-01-15T12:45:06;0.80;84.10
25532;DHT22;13429;48.816;9.118;2024-01-15T12:47:32;0.70;84.70
25532;DHT22;13429;48.816;9.118;2024-01-15T12:49:58;0.70;85.30
25532;DHT22;13429;48.816;9.118;2024-01-15T12:52:27;0.60;85.50
25532;DHT22;13429;48.816;9.118;2024-01-15T12:54:53;0.60;85.70
25532;DHT22;13429;48.816;9.118;2024-01-15T12:57:19;0.70;85.50
25532;DHT22;13429;48.816;9.118;2024-01-15T12:59:45;0.60;85.90
25532;DHT22;13429;48.816;9.118;2024-01-15T13:02:14;0.70;85.90
25532;DHT22;13429;48.816;9.118;2024-01-15T13:04:39;0.80;85.70
25532;DHT22;13429;48.816;9.118;2024-01-15T13:07:06;0.90;85.70
25532;DHT22;13429;48.816;9.118;2024-01-15T13:09:33;1.00;84.90
25532;DHT22;13429;48.816;9.118;2024-01-15T13:11:59;1.00;85.10
25532;DHT22;13429;48.816;9.118;2024-01-15T13:14:25;0.90;85.30
25532;DHT22;13429;48.816;9.118;2024-01-15T13:16:50;0.80;85.80
25532;DHT22;13429;48.816;9.118;2024-01-15T13:19:17;0.70;86.30
25532;DHT22;13429;48.816;9.118;2024-01-15T13:21:43;0.70;86.20
25532;DHT22;13429;48.816;9.118;2024-01-15T13:24:08;0.60;86.50
25532;DHT22;13429;48.816;9.118;2024-01-15T13:26:35;0.70;86.60
25532;DHT22;13429;48.816;9.118;2024-01-15T13:29:04;0.70;86.50
25532;DHT22;13429;48.816;9.118;2024-01-15T13:31:30;0.70;86.60
25532;DHT22;13429;48.816;9.118;2024-01-15T13:33:56;0.70;86.40
25532;DHT22;13429;48.816;9.118;2024-01-15T13:36:22;0.60;86.50
25532;DHT22;13429;48.816;9.118;2024-01-15T13:38:49;0.60;86.30
25532;DHT22;13429;48.816;9.118;2024-01-15T13:41:16;0.60;86.50
25532;DHT22;13429;48.816;9.118;2024-01-15T13:43:45;0.60;86.60
25532;DHT22;13429;48.816;9.118;2024-01-15T13:46:10;0.60;86.70
25532;DHT22;13429;48.816;9.118;2024-01-15T13:48:36;0.60;86.80
25532;DHT22;13429;48.816;9.118;2024-01-15T13:51:02;0.60;86.80
25532;DHT22;13429;48.816;9.118;2024-01-15T13:53:28;0.60;87.10
25532;DHT22;13429;48.816;9.118;2024-01-15T13:55:53;0.60;87.00
25532;DHT22;13429;48.816;9.118;2024-01-15T13:58:19;0.60;87.00
25532;DHT22;13429;48.816;9.118;2024-01-15T14:00:47;0.70;87.00
25532;DHT22;13429;48.816;9.118;2024-01-15T14:03:12;0.60;86.90
25532;DHT22;13429;48.816;9.118;2024-01-15T14:05:38;0.60;87.10
25532;DHT22;13429;48.816;9.118;2024-01-15T14:08:04;0.70;87.10
25532;DHT22;13429;48.816;9.118;2024-01-15T14:10:30;0.70;86.80
25532;DHT22;13429;48.816;9.118;2024-01-15T14:12:56;0.60;86.10
25532;DHT22;13429;48.816;9.118;2024-01-15T14:15:21;0.70;85.90
25532;DHT22;13429;48.816;9.118;2024-01-15T14:17:47;0.80;85.70
25532;DHT22;13429;48.816;9.118;2024-01-15T14:20:13;0.80;85.60
25532;DHT22;13429;48.816;9.118;2024-01-15T14:22:38;0.80;85.40
25532;DHT22;13429;48.816;9.118;2024-01-15T14:25:04;0.80;85.20
25532;DHT22;13429;48.816;9.118;2024-01-15T14:27:30;0.80;85.10
25532;DHT22;13429;48.816;9.118;2024-01-15T14:29:56;0.80;84.50
25532;DHT22;13429;48.816;9.118;2024-01-15T14:32:21;0.80;84.40
25532;DHT22;13429;48.816;9.118;2024-01-15T14:34:47;0.80;83.80
25532;DHT22;13429;48.816;9.118;2024-01-15T14:37:13;0.60;84.20
25532;DHT22;13429;48.816;9.118;2024-01-15T14:39:39;0.60;84.80
25532;DHT22;13429;48.816;9.118;2024-01-15T14:42:04;0.50;85.30
25532;DHT22;13429;48.816;9.118;2024-01-15T14:44:30;0.40;86.10
25532;DHT22;13429;48.816;9.118;2024-01-15T14:46:58;0.30;86.70
25532;DHT22;13429;48.816;9.118;2024-01-15T14:49:24;0.20;87.70
25532;DHT22;13429;48.816;9.118;2024-01-15T14:51:50;0.10;88.50
25532;DHT22;13429;48.816;9.118;2024-01-15T14:54:16;0.10;88.50
25532;DHT22;13429;48.816;9.118;2024-01-15T14:56:41;0.10;88.50
25532;DHT22;13429;48.816;9.118;2024-01-15T14:59:08;0.10;88.60
25532;DHT22;13429;48.816;9.118;2024-01-15T15:01:34;0.10;88.60
25532;DHT22;13429;48.816;9.118;2024-01-15T15:04:00;0.00;88.60
25532;DHT22;13429;48.816;9.118;2024-01-15T15:06:26;0.00;88.40
25532;DHT22;13429;48.816;9.118;2024-01-15T15:08:53;0.00;88.30
25532;DHT22;13429;48.816;9.118;2024-01-15T15:11:21;0.00;88.30
25532;DHT22;13429;48.816;9.118;2024-01-15T15:13:48;0.00;88.50
25532;DHT22;13429;48.816;9.118;2024-01-15T15:16:15;0.00;88.20